Time;durP1;ratioP1;P1;durP2;ratioP2;P2;SDS_P1;SDS_P2;PMS_P1;PMS_P2;Temp;Humidity;BMP_temperature;BMP_pressure;BME280_temperature;BME280_humidity;BME280_pressure;Samples;Min_cycle;Max_cycle;Signal;HPM_P1;HPM_P2
2023/05/20 00:01:37;;;;;;;5.30;4.30;;;10.80;99.90;;;;;;5036594;28;20593;-60
2023/05/20 00:04:05;;;;;;;5.47;4.17;;;10.80;99.90;;;;;;5037172;28;20581;-61
2023/05/20 00:06:33;;;;;;;4.43;3.67;;;10.70;99.90;;;;;;5036934;28;20463;-61
2023/05/20 00:09:00;;;;;;;5.37;4.17;;;10.70;99.90;;;;;;5037003;28;20807;-61
2023/05/20 00:11:28;;;;;;;4.33;3.90;;;10.60;99.90;;;;;;5036673;28;20768;-61
2023/05/20 00:13:55;;;;;;;4.93;4.50;;;10.60;99.90;;;;;;5037102;28;20569;-61
2023/05/20 00:16:24;;;;;;;7.93;4.80;;;10.60;99.90;;;;;;5037074;28;20759;-61
2023/05/20 00:18:51;;;;;;;5.67;4.53;;;10.60;99.90;;;;;;5036531;28;20467;-61
2023/05/20 00:21:18;;;;;;;4.20;3.80;;;10.60;99.90;;;;;;5036784;28;20848;-61
2023/05/20 00:23:45;;;;;;;4.17;3.63;;;10.50;99.90;;;;;;5036752;28;20845;-61
2023/05/20 00:26:12;;;;;;;8.07;3.90;;;10.50;99.90;;;;;;5036789;28;20518;-61
2023/05/20 00:28:39;;;;;;;8.80;4.30;;;10.50;99.90;;;;;;5036702;28;20485;-61
2023/05/20 00:31:07;;;;;;;4.10;3.80;;;10.40;99.90;;;;;;5038584;28;20759;-61
2023/05/20 00:33:36;;;;;;;4.83;4.10;;;10.40;99.90;;;;;;5040485;28;20466;-61
2023/05/20 00:36:03;;;;;;;6.40;4.10;;;10.40;99.90;;;;;;5040777;28;20561;-61
2023/05/20 00:38:31;;;;;;;5.03;3.70;;;10.30;99.90;;;;;;5040275;28;20498;-61
2023/05/20 00:40:58;;;;;;;6.03;3.67;;;10.40;99.90;;;;;;5040794;28;20501;-61
2023/05/20 00:43:25;;;;;;;5.70;4.23;;;10.40;99.90;;;;;;5040752;28;20944;-61
2023/05/20 00:45:54;;;;;;;5.43;4.00;;;10.40;99.90;;;;;;5041044;28;20871;-61
2023/05/20 00:48:22;;;;;;;5.40;3.90;;;10.40;99.90;;;;;;5040203;28;20462;-61
2023/05/20 00:50:51;;;;;;;4.40;3.40;;;10.30;99.90;;;;;;5040403;28;20895;-61
2023/05/20 00:53:18;;;;;;;5.17;4.30;;;10.40;99.90;;;;;;5040278;28;20466;-61
2023/05/20 00:55:45;;;;;;;8.23;3.73;;;10.40;99.90;;;;;;5040765;28;20756;-61
2023/05/20 00:58:13;;;;;;;4.87;4.17;;;10.50;99.90;;;;;;5040519;28;20463;-60
2023/05/20 01:00:40;;;;;;;4.63;4.10;;;10.50;99.90;;;;;;5040133;28;20494;-61
2023/05/20 01:03:08;;;;;;;4.00;3.70;;;10.50;99.90;;;;;;5040041;28;20529;-61
2023/05/20 01:05:35;;;;;;;4.00;3.60;;;10.50;99.90;;;;;;5040304;28;20448;-61
2023/05/20 01:08:04;;;;;;;5.23;3.80;;;10.50;99.90;;;;;;5040594;28;20817;-61
2023/05/20 01:10:33;;;;;;;4.87;3.80;;;10.50;99.90;;;;;;5039929;28;20463;-60
2023/05/20 01:13:04;;;;;;;5.00;4.50;;;10.50;99.90;;;;;;5039904;28;20462;-61
2023/05/20 01:15:31;;;;;;;4.37;3.97;;;10.50;99.90;;;;;;5039935;28;20463;-60
2023/05/20 01:18:04;;;;;;;4.80;4.23;;;10.50;99.90;;;;;;5040290;28;20845;-61
2023/05/20 01:20:33;;;;;;;6.20;3.83;;;10.50;99.90;;;;;;5040010;28;20875;-61
2023/05/20 01:23:02;;;;;;;4.60;3.80;;;10.50;99.90;;;;;;5039605;28;20474;-61
2023/05/20 01:25:29;;;;;;;4.27;3.87;;;10.50;99.90;;;;;;5039753;28;20574;-61
2023/05/20 01:27:58;;;;;;;4.50;4.00;;;10.50;99.90;;;;;;5039789;28;20467;-61
2023/05/20 01:30:29;;;;;;;5.10;3.90;;;10.40;99.90;;;;;;5039962;28;20467;-61
2023/05/20 01:33:02;;;;;;;5.73;4.87;;;10.40;99.90;;;;;;5039478;28;20489;-61
2023/05/20 01:35:30;;;;;;;5.53;4.10;;;10.40;99.90;;;;;;5039743;28;20566;-61
2023/05/20 01:37:58;;;;;;;6.03;4.43;;;10.40;99.90;;;;;;5039782;28;20557;-60
2023/05/20 01:40:28;;;;;;;6.40;4.20;;;10.40;99.90;;;;;;5039959;28;20557;-61
2023/05/20 01:42:56;;;;;;;5.07;4.33;;;10.40;99.90;;;;;;5038811;28;20470;-61
2023/05/20 01:45:24;;;;;;;5.63;4.40;;;10.40;99.90;;;;;;5039353;28;20463;-61
2023/05/20 01:47:52;;;;;;;4.53;4.10;;;10.40;99.90;;;;;;5039649;28;20489;-61
2023/05/20 01:50:19;;;;;;;5.23;4.33;;;10.40;99.90;;;;;;5039488;28;20499;-61
2023/05/20 01:52:46;;;;;;;5.50;4.70;;;10.30;99.90;;;;;;5039526;28;20466;-61
2023/05/20 01:55:13;;;;;;;5.10;4.37;;;10.40;99.90;;;;;;5039572;28;20481;-61
2023/05/20 01:57:42;;;;;;;10.83;4.30;;;10.30;99.90;;;;;;5039295;28;20554;-60
2023/05/20 02:00:10;;;;;;;5.37;4.77;;;10.30;99.90;;;;;;5039086;28;20554;-60
2023/05/20 02:02:38;;;;;;;6.63;5.17;;;10.30;99.90;;;;;;5039071;28;20527;-60
2023/05/20 02:05:05;;;;;;;4.93;4.50;;;10.30;99.90;;;;;;5039544;28;20526;-61
2023/05/20 02:07:32;;;;;;;4.93;4.40;;;10.30;99.90;;;;;;5039167;28;20999;-60
2023/05/20 02:10:00;;;;;;;7.17;4.47;;;10.20;99.90;;;;;;5039354;28;20876;-61
2023/05/20 02:12:27;;;;;;;5.20;4.70;;;10.30;99.90;;;;;;5039100;28;20465;-61
2023/05/20 02:14:56;;;;;;;4.70;4.20;;;10.30;99.90;;;;;;5038508;28;20467;-61
2023/05/20 02:17:23;;;;;;;6.73;5.10;;;10.30;99.90;;;;;;5038818;28;20469;-61
2023/05/20 02:19:50;;;;;;;7.43;4.60;;;10.30;99.90;;;;;;5038827;28;20467;-62
2023/05/20 02:22:17;;;;;;;5.93;4.90;;;10.20;99.90;;;;;;5038920;28;20942;-61
2023/05/20 02:24:45;;;;;;;5.77;5.27;;;10.20;99.90;;;;;;5038778;28;20467;-61
2023/05/20 02:27:12;;;;;;;5.90;4.40;;;10.20;99.90;;;;;;5038402;28;20509;-61
2023/05/20 02:29:39;;;;;;;5.80;4.90;;;10.10;99.90;;;;;;5038908;28;20506;-61
2023/05/20 02:32:08;;;;;;;9.90;6.97;;;10.10;99.90;;;;;;5039003;28;20558;-61
2023/05/20 02:34:36;;;;;;;5.43;4.93;;;10.00;99.90;;;;;;5038251;28;20919;-61
2023/05/20 02:37:03;;;;;;;5.73;4.70;;;10.00;99.90;;;;;;5038333;28;20463;-61
2023/05/20 02:39:30;;;;;;;5.77;5.17;;;10.00;99.90;;;;;;5038692;28;20561;-60
2023/05/20 02:41:57;;;;;;;5.20;4.70;;;10.10;99.90;;;;;;5038700;28;20589;-61
2023/05/20 02:44:24;;;;;;;5.33;4.80;;;10.00;99.90;;;;;;5038838;28;20498;-60
2023/05/20 02:46:52;;;;;;;5.30;4.37;;;10.00;99.90;;;;;;5038233;28;20467;-61
2023/05/20 02:49:20;;;;;;;9.07;5.17;;;9.90;99.90;;;;;;5038615;28;20752;-61
2023/05/20 02:51:48;;;;;;;7.60;5.10;;;9.90;99.90;;;;;;5038290;28;20470;-61
2023/05/20 02:54:15;;;;;;;5.73;4.90;;;9.90;99.90;;;;;;5037372;28;20562;-61
2023/05/20 02:56:42;;;;;;;6.73;5.37;;;9.80;99.90;;;;;;5037792;28;20498;-61
2023/05/20 02:59:09;;;;;;;6.40;5.63;;;9.80;99.90;;;;;;5037945;28;20558;-60
2023/05/20 03:01:37;;;;;;;7.93;4.60;;;9.80;99.90;;;;;;5037966;28;20779;-61
2023/05/20 03:04:04;;;;;;;7.10;5.80;;;9.80;99.90;;;;;;5038400;28;20833;-61
2023/05/20 03:06:32;;;;;;;6.07;5.47;;;9.90;99.90;;;;;;5037837;28;20474;-60
2023/05/20 03:09:00;;;;;;;6.20;5.60;;;9.80;99.90;;;;;;5038084;28;20463;-61
2023/05/20 03:11:27;;;;;;;5.33;4.83;;;9.80;99.90;;;;;;5038051;28;20470;-61
2023/05/20 03:13:54;;;;;;;6.23;5.10;;;9.70;99.90;;;;;;5037904;28;20467;-61
2023/05/20 03:16:23;;;;;;;5.57;5.07;;;9.70;99.90;;;;;;5038261;28;20442;-61
2023/05/20 03:18:51;;;;;;;6.20;4.80;;;9.70;99.90;;;;;;5037808;28;20473;-61
2023/05/20 03:21:18;;;;;;;9.43;5.57;;;9.70;99.90;;;;;;5037157;28;20499;-60
2023/05/20 03:23:47;;;;;;;5.53;4.90;;;9.70;99.90;;;;;;5037873;28;20819;-60
2023/05/20 03:26:14;;;;;;;5.53;4.83;;;9.70;99.90;;;;;;5037262;28;20526;-61
2023/05/20 03:28:41;;;;;;;7.00;4.73;;;9.70;99.90;;;;;;5037466;28;20838;-60
2023/05/20 03:31:09;;;;;;;7.73;4.70;;;9.60;99.90;;;;;;5037550;28;20775;-60
2023/05/20 03:33:36;;;;;;;7.30;5.30;;;9.70;99.90;;;;;;5037472;28;20470;-60
2023/05/20 03:36:03;;;;;;;10.90;4.83;;;9.60;99.90;;;;;;5037370;28;20553;-60
2023/05/20 03:38:31;;;;;;;7.27;5.10;;;9.60;99.90;;;;;;5054610;28;20482;-60
2023/05/20 03:40:59;;;;;;;5.87;5.30;;;9.60;99.90;;;;;;5056993;28;20462;-60
2023/05/20 03:43:27;;;;;;;7.10;4.87;;;9.50;99.90;;;;;;5057553;28;20871;-60
2023/05/20 03:45:55;;;;;;;5.83;5.23;;;9.50;99.90;;;;;;5057535;28;20462;-60
2023/05/20 03:48:22;;;;;;;6.67;4.90;;;9.50;99.90;;;;;;5057363;28;20441;-60
2023/05/20 03:50:50;;;;;;;5.87;5.27;;;9.50;99.90;;;;;;5056651;28;20466;-60
2023/05/20 03:53:19;;;;;;;6.30;4.43;;;9.50;99.90;;;;;;5057140;28;20561;-60
2023/05/20 03:55:46;;;;;;;5.27;4.77;;;9.50;99.90;;;;;;5057203;28;20778;-60
2023/05/20 03:58:15;;;;;;;6.10;4.27;;;9.50;99.90;;;;;;5057212;28;20463;-60
2023/05/20 04:00:42;;;;;;;6.00;5.13;;;9.50;99.90;;;;;;5056690;28;20581;-61
2023/05/20 04:03:10;;;;;;;6.03;5.37;;;9.50;99.90;;;;;;5056624;28;20508;-60
2023/05/20 04:05:37;;;;;;;6.50;4.83;;;9.60;99.90;;;;;;5057006;28;20811;-60
2023/05/20 04:08:05;;;;;;;6.20;5.50;;;9.60;99.90;;;;;;5056403;28;20462;-61
2023/05/20 04:10:32;;;;;;;6.57;5.47;;;9.60;99.90;;;;;;5056808;28;20465;-60
2023/05/20 04:13:00;;;;;;;6.07;5.03;;;9.60;99.90;;;;;;5057105;28;20432;-60
2023/05/20 04:15:29;;;;;;;7.73;5.63;;;9.70;99.90;;;;;;5057082;28;20462;-61
2023/05/20 04:17:56;;;;;;;5.60;5.03;;;9.70;99.90;;;;;;5057290;28;20462;-60
2023/05/20 04:20:24;;;;;;;5.73;5.13;;;9.70;99.90;;;;;;5057289;28;20481;-60
2023/05/20 04:22:51;;;;;;;6.10;5.20;;;9.80;99.90;;;;;;5056311;28;20494;-60
2023/05/20 04:25:18;;;;;;;6.10;4.80;;;9.80;99.90;;;;;;5056244;28;20462;-61
2023/05/20 04:27:45;;;;;;;4.73;4.30;;;9.80;99.90;;;;;;5056850;28;20462;-60
2023/05/20 04:30:13;;;;;;;5.43;4.93;;;9.90;99.90;;;;;;5056816;28;20557;-60
2023/05/20 04:32:42;;;;;;;5.47;4.60;;;9.90;99.90;;;;;;5056118;28;20435;-60
2023/05/20 04:35:12;;;;;;;5.03;4.63;;;10.00;99.90;;;;;;5056783;28;20569;-60
2023/05/20 04:37:41;;;;;;;6.27;4.33;;;10.00;99.90;;;;;;5056441;28;20891;-60
2023/05/20 04:40:09;;;;;;;6.00;4.60;;;10.00;99.90;;;;;;5056297;28;20834;-60
2023/05/20 04:42:37;;;;;;;4.90;4.40;;;10.00;99.90;;;;;;5056755;28;20881;-60
2023/05/20 04:45:07;;;;;;;6.10;4.50;;;10.00;99.90;;;;;;5056411;28;20482;-59
2023/05/20 04:47:37;;;;;;;5.00;4.50;;;10.10;99.90;;;;;;5056505;28;20592;-59
2023/05/20 04:50:09;;;;;;;6.13;4.93;;;10.20;99.90;;;;;;5056339;28;20544;-60
2023/05/20 04:52:37;;;;;;;5.07;4.57;;;10.20;99.90;;;;;;5055910;28;20462;-60
2023/05/20 04:55:07;;;;;;;5.50;5.00;;;10.30;99.90;;;;;;5056302;28;20530;-60
2023/05/20 04:57:35;;;;;;;8.60;4.90;;;10.30;99.90;;;;;;5056567;28;20933;-60
2023/05/20 05:00:04;;;;;;;4.93;4.50;;;10.40;99.90;;;;;;5056362;28;20473;-60
2023/05/20 05:02:31;;;;;;;4.70;4.07;;;10.50;99.90;;;;;;5056095;28;20498;-60
2023/05/20 05:04:59;;;;;;;7.00;4.10;;;10.50;99.90;;;;;;5056503;28;20466;-60
2023/05/20 05:07:27;;;;;;;5.43;4.93;;;10.60;99.90;;;;;;5056608;28;20560;-60
2023/05/20 05:09:55;;;;;;;5.37;4.87;;;10.60;99.90;;;;;;5056658;28;20437;-60
2023/05/20 05:12:22;;;;;;;4.83;4.43;;;10.70;99.90;;;;;;5056733;28;20548;-60
2023/05/20 05:14:49;;;;;;;7.03;4.70;;;10.70;99.90;;;;;;5056515;28;20466;-60
2023/05/20 05:17:17;;;;;;;5.97;4.67;;;10.80;99.90;;;;;;5056676;28;20749;-60
2023/05/20 05:19:44;;;;;;;7.20;4.67;;;10.80;99.90;;;;;;5059890;28;20545;-60
2023/05/20 05:22:12;;;;;;;5.00;4.30;;;10.80;99.90;;;;;;5059848;28;20489;-60
2023/05/20 05:24:40;;;;;;;4.77;4.37;;;10.90;99.90;;;;;;5059771;28;20443;-60
2023/05/20 05:27:07;;;;;;;4.20;3.80;;;10.90;99.90;;;;;;5059960;28;20482;-60
2023/05/20 05:29:35;;;;;;;5.17;4.30;;;10.90;99.90;;;;;;5059936;28;20481;-60
2023/05/20 05:32:02;;;;;;;4.40;4.00;;;11.00;99.90;;;;;;5059786;28;20556;-60
2023/05/20 05:34:29;;;;;;;7.30;4.87;;;11.00;99.90;;;;;;5059526;28;20988;-60
2023/05/20 05:36:56;;;;;;;5.40;4.37;;;11.20;99.90;;;;;;5059630;28;20879;-62
2023/05/20 05:39:23;;;;;;;7.17;4.40;;;11.20;99.90;;;;;;5059533;28;20437;-62
2023/05/20 05:41:53;;;;;;;6.13;4.80;;;11.30;99.90;;;;;;5059520;28;20458;-62
2023/05/20 05:44:20;;;;;;;5.80;4.73;;;11.30;99.90;;;;;;5059666;28;20957;-59
2023/05/20 05:46:49;;;;;;;4.63;4.17;;;11.40;99.90;;;;;;5059634;28;20485;-62
2023/05/20 05:49:17;;;;;;;5.50;4.77;;;11.50;99.90;;;;;;5059418;28;20489;-62
2023/05/20 05:51:44;;;;;;;6.20;4.57;;;11.60;99.90;;;;;;5059622;28;20466;-62
2023/05/20 05:54:11;;;;;;;5.67;5.03;;;11.60;99.90;;;;;;5059689;28;20536;-62
2023/05/20 05:56:38;;;;;;;5.30;4.37;;;11.70;99.90;;;;;;5059097;28;20497;-60
2023/05/20 05:59:07;;;;;;;5.20;4.70;;;11.80;99.90;;;;;;5059331;28;20484;-59
2023/05/20 06:01:36;;;;;;;6.23;4.87;;;11.80;99.90;;;;;;5059511;28;20835;-60
2023/05/20 06:04:03;;;;;;;5.53;4.93;;;11.80;99.90;;;;;;5059127;28;20498;-60
2023/05/20 06:06:31;;;;;;;5.77;5.13;;;11.80;99.90;;;;;;5058671;28;20497;-60
2023/05/20 06:08:58;;;;;;;4.67;4.17;;;11.90;99.90;;;;;;5058857;28;20466;-62
2023/05/20 06:11:26;;;;;;;5.57;5.03;;;12.00;99.90;;;;;;5058109;28;21010;-62
2023/05/20 06:13:53;;;;;;;5.00;4.50;;;12.10;99.90;;;;;;5058707;28;20458;-61
2023/05/20 06:16:22;;;;;;;6.60;5.00;;;12.20;99.90;;;;;;5059055;28;20544;-60
2023/05/20 06:18:50;;;;;;;5.53;4.90;;;12.20;99.90;;;;;;5058990;28;20767;-60
2023/05/20 06:21:17;;;;;;;5.70;4.70;;;12.20;99.90;;;;;;5058932;28;20473;-60
2023/05/20 06:23:44;;;;;;;5.90;4.60;;;12.40;99.90;;;;;;5058576;28;20500;-61
2023/05/20 06:26:11;;;;;;;5.63;4.70;;;12.40;99.90;;;;;;5032825;28;20484;-60
2023/05/20 06:28:39;;;;;;;7.90;5.00;;;12.50;99.90;;;;;;5008555;28;20460;-63
2023/05/20 06:31:06;;;;;;;5.63;4.93;;;12.60;99.90;;;;;;5006283;28;20838;-63
2023/05/20 06:33:35;;;;;;;5.67;4.70;;;12.70;99.90;;;;;;5006145;28;20558;-63
2023/05/20 06:36:02;;;;;;;4.80;4.37;;;12.90;99.90;;;;;;5010245;28;20961;-63
2023/05/20 06:38:29;;;;;;;5.73;5.23;;;12.90;99.90;;;;;;4997835;28;20519;-62
2023/05/20 06:40:57;;;;;;;5.43;4.20;;;12.80;99.90;;;;;;4998347;28;20753;-60
2023/05/20 06:43:24;;;;;;;7.20;4.90;;;12.80;99.90;;;;;;4998858;28;20795;-60
2023/05/20 06:45:51;;;;;;;5.33;4.30;;;12.80;99.90;;;;;;4997520;28;20848;-60
2023/05/20 06:48:18;;;;;;;5.27;4.77;;;12.80;99.90;;;;;;4997207;28;20556;-62
2023/05/20 06:50:47;;;;;;;5.93;4.83;;;13.00;99.90;;;;;;4996937;28;20571;-62
2023/05/20 06:53:14;;;;;;;5.40;4.80;;;13.30;99.90;;;;;;4997093;28;20465;-62
2023/05/20 06:55:41;;;;;;;8.23;5.60;;;13.20;99.90;;;;;;4996620;28;20511;-60
2023/05/20 06:58:08;;;;;;;6.60;5.60;;;13.40;99.90;;;;;;4995960;28;20907;-61
2023/05/20 07:00:35;;;;;;;6.20;5.70;;;13.40;99.90;;;;;;4997473;28;20465;-60
2023/05/20 07:03:03;;;;;;;6.47;5.40;;;13.40;99.90;;;;;;4996946;28;20958;-60
2023/05/20 07:05:30;;;;;;;7.37;5.30;;;13.20;99.90;;;;;;4997921;28;20671;-60
2023/05/20 07:07:59;;;;;;;5.03;4.53;;;13.40;99.90;;;;;;4997765;28;20789;-60
2023/05/20 07:10:26;;;;;;;5.47;4.93;;;13.60;99.90;;;;;;4998110;28;20870;-60
2023/05/20 07:12:53;;;;;;;4.90;4.50;;;13.60;99.90;;;;;;4997774;28;20492;-60
2023/05/20 07:15:20;;;;;;;5.50;5.00;;;13.70;99.90;;;;;;4998372;28;20559;-60
2023/05/20 07:17:47;;;;;;;5.97;5.47;;;14.00;99.90;;;;;;4998672;28;20759;-61
2023/05/20 07:20:15;;;;;;;8.40;4.90;;;13.80;99.90;;;;;;4998645;28;20870;-61
2023/05/20 07:22:42;;;;;;;5.67;5.17;;;13.90;99.90;;;;;;4997850;28;20499;-61
2023/05/20 07:25:11;;;;;;;7.40;4.97;;;14.00;99.90;;;;;;4998234;28;20527;-61
2023/05/20 07:27:39;;;;;;;6.27;5.67;;;14.20;99.90;;;;;;5017270;28;20468;-60
2023/05/20 07:30:07;;;;;;;4.83;4.33;;;14.20;99.90;;;;;;5017926;28;20800;-60
2023/05/20 07:32:34;;;;;;;5.90;5.40;;;14.50;99.90;;;;;;5017907;28;20456;-61
2023/05/20 07:35:01;;;;;;;7.90;5.20;;;14.60;99.90;;;;;;5016517;28;20488;-60
2023/05/20 07:37:30;;;;;;;5.77;5.27;;;14.70;99.90;;;;;;5016717;28;20984;-61
2023/05/20 07:39:57;;;;;;;6.37;5.77;;;14.50;99.90;;;;;;5015939;28;20486;-61
2023/05/20 07:42:26;;;;;;;6.03;5.53;;;14.50;99.90;;;;;;5027602;28;20470;-61
2023/05/20 07:44:53;;;;;;;7.67;5.93;;;14.60;99.90;;;;;;5035390;28;20463;-60
2023/05/20 07:47:20;;;;;;;6.43;5.60;;;14.40;99.90;;;;;;5035341;28;20559;-60
2023/05/20 07:49:47;;;;;;;7.30;5.70;;;14.50;99.90;;;;;;5036158;28;20463;-61
2023/05/20 07:52:15;;;;;;;6.07;5.47;;;14.60;99.90;;;;;;5036032;28;20547;-61
2023/05/20 07:54:42;;;;;;;7.30;6.30;;;14.30;99.90;;;;;;5035777;28;20459;-61
2023/05/20 07:57:09;;;;;;;6.47;5.87;;;14.30;99.90;;;;;;5036016;28;20714;-61
2023/05/20 07:59:38;;;;;;;6.57;5.87;;;14.40;99.90;;;;;;5040728;28;20553;-61
2023/05/20 08:02:05;;;;;;;6.40;5.90;;;14.30;99.90;;;;;;5051858;28;20541;-61
2023/05/20 08:04:33;;;;;;;6.97;5.60;;;14.70;99.90;;;;;;5035479;28;20503;-61
2023/05/20 08:07:01;;;;;;;6.90;6.20;;;15.00;99.90;;;;;;5037386;28;20948;-61
2023/05/20 08:09:28;;;;;;;7.07;6.47;;;15.00;99.90;;;;;;5037100;28;20503;-61
2023/05/20 08:11:55;;;;;;;6.90;6.20;;;15.10;99.90;;;;;;5035467;28;20489;-61
2023/05/20 08:14:22;;;;;;;7.10;5.73;;;14.90;99.90;;;;;;5035612;28;20465;-61
2023/05/20 08:16:51;;;;;;;8.30;6.47;;;15.00;99.90;;;;;;5032833;28;20460;-61
2023/05/20 08:19:18;;;;;;;6.73;6.13;;;14.90;99.90;;;;;;5026316;28;20474;-61
2023/05/20 08:21:46;;;;;;;7.33;5.70;;;15.10;99.90;;;;;;5025481;28;20900;-61
2023/05/20 08:24:13;;;;;;;6.67;6.07;;;15.20;99.90;;;;;;5042305;28;20522;-61
2023/05/20 08:26:40;;;;;;;7.17;6.47;;;15.00;99.90;;;;;;5045235;28;20934;-61
2023/05/20 08:29:08;;;;;;;7.43;6.50;;;15.10;99.90;;;;;;5045124;28;20545;-60
2023/05/20 08:31:35;;;;;;;7.53;6.20;;;15.10;99.90;;;;;;5042315;28;20822;-61
2023/05/20 08:34:04;;;;;;;6.90;6.20;;;15.30;99.90;;;;;;5036606;28;20759;-61
2023/05/20 08:36:32;;;;;;;8.70;6.07;;;15.40;99.90;;;;;;5036290;28;20438;-61
2023/05/20 08:38:59;;;;;;;9.20;5.90;;;15.50;99.90;;;;;;5036589;28;20482;-61
2023/05/20 08:41:26;;;;;;;7.00;6.30;;;15.70;99.90;;;;;;5037259;28;20467;-61
2023/05/20 08:43:54;;;;;;;6.70;6.07;;;15.50;99.90;;;;;;5055789;28;20490;-61
2023/05/20 08:46:22;;;;;;;8.17;7.47;;;15.60;99.90;;;;;;5056922;28;20502;-61
2023/05/20 08:48:50;;;;;;;7.27;6.57;;;15.70;99.90;;;;;;5056465;28;20560;-61
2023/05/20 08:51:22;;;;;;;7.50;6.80;;;15.60;99.90;;;;;;5056595;28;20914;-61
2023/05/20 08:53:49;;;;;;;7.37;6.60;;;15.60;99.90;;;;;;5059919;28;20462;-61
2023/05/20 08:56:17;;;;;;;8.40;6.50;;;15.50;99.90;;;;;;5060798;28;20462;-61
2023/05/20 08:58:45;;;;;;;7.13;6.20;;;15.60;99.90;;;;;;5060044;28;20458;-62
2023/05/20 09:01:13;;;;;;;7.57;6.87;;;15.60;99.90;;;;;;5060397;28;20462;-61
2023/05/20 09:03:40;;;;;;;8.03;7.33;;;15.90;99.90;;;;;;5060582;28;20532;-61
2023/05/20 09:06:08;;;;;;;7.17;6.47;;;15.90;99.90;;;;;;5060278;28;20501;-61
2023/05/20 09:08:37;;;;;;;8.20;6.40;;;16.10;99.90;;;;;;5060141;28;20466;-61
2023/05/20 09:11:04;;;;;;;7.10;6.40;;;16.20;99.90;;;;;;5059879;28;20462;-60
2023/05/20 09:13:32;;;;;;;10.10;7.40;;;16.60;99.90;;;;;;5060093;28;20466;-61
2023/05/20 09:16:01;;;;;;;7.13;6.53;;;16.70;99.90;;;;;;5043528;28;20481;-61
2023/05/20 09:18:29;;;;;;;7.20;6.57;;;17.00;99.90;;;;;;5039892;28;20462;-61
2023/05/20 09:20:57;;;;;;;7.00;6.33;;;16.80;99.90;;;;;;5021950;28;20889;-61
2023/05/20 09:23:26;;;;;;;7.90;7.10;;;16.60;99.90;;;;;;5038811;28;20494;-61
2023/05/20 09:25:55;;;;;;;9.60;8.10;;;16.50;99.90;;;;;;5021154;28;20988;-62
2023/05/20 09:28:24;;;;;;;7.83;7.10;;;16.40;99.90;;;;;;5018852;28;20547;-62
2023/05/20 09:30:51;;;;;;;7.23;6.57;;;16.80;99.90;;;;;;5017462;28;20463;-62
2023/05/20 09:33:18;;;;;;;7.43;6.80;;;16.90;99.90;;;;;;5017888;28;20459;-62
2023/05/20 09:35:45;;;;;;;8.00;7.30;;;17.10;99.90;;;;;;5017765;28;20464;-61
2023/05/20 09:38:14;;;;;;;7.80;7.00;;;17.10;99.90;;;;;;5020609;28;20465;-62
2023/05/20 09:40:43;;;;;;;9.10;7.47;;;17.10;99.90;;;;;;5035321;28;20586;-62
2023/05/20 09:43:12;;;;;;;8.40;7.53;;;16.70;99.90;;;;;;5035402;28;20743;-61
2023/05/20 09:45:39;;;;;;;8.47;7.67;;;16.50;99.90;;;;;;5036853;28;20503;-62
2023/05/20 09:48:10;;;;;;;9.27;7.77;;;16.60;99.90;;;;;;5041501;28;20562;-62
2023/05/20 09:50:38;;;;;;;8.97;8.17;;;16.70;99.90;;;;;;5043833;28;20471;-62
2023/05/20 09:53:06;;;;;;;8.37;7.67;;;16.50;99.90;;;;;;5038000;28;20539;-61
2023/05/20 09:55:34;;;;;;;8.97;8.17;;;16.30;99.90;;;;;;5038249;28;20467;-61
2023/05/20 09:58:03;;;;;;;8.93;7.97;;;16.30;99.90;;;;;;5039826;28;20467;-61
2023/05/20 10:00:33;;;;;;;9.23;8.33;;;16.20;99.90;;;;;;5039716;28;20473;-62
2023/05/20 10:03:01;;;;;;;9.13;7.30;;;16.00;99.90;;;;;;5038523;28;20459;-61
2023/05/20 10:05:32;;;;;;;8.50;7.80;;;16.10;99.90;;;;;;5039917;28;20463;-62
2023/05/20 10:08:32;;;;;;;9.23;8.33;;;16.40;99.90;;;;;;5039290;28;20469;-61
2023/05/20 10:11:11;;;;;;;10.53;8.20;;;16.40;99.90;;;;;;5039024;28;20458;-61
2023/05/20 10:14:09;;;;;;;9.23;8.30;;;16.30;99.90;;;;;;5039000;28;20458;-62
2023/05/20 10:16:48;;;;;;;9.70;8.80;;;16.20;99.90;;;;;;5018930;28;20551;-61
2023/05/20 10:19:27;;;;;;;8.27;7.47;;;16.00;99.90;;;;;;5017904;28;20456;-62
2023/05/20 10:21:58;;;;;;;9.40;8.50;;;16.10;99.90;;;;;;5018210;28;20464;-61
2023/05/20 10:24:31;;;;;;;9.50;8.20;;;16.20;99.90;;;;;;5017223;28;20496;-62
2023/05/20 10:27:01;;;;;;;12.77;8.83;;;16.30;99.90;;;;;;5017596;28;20483;-61
2023/05/20 10:29:29;;;;;;;9.53;8.63;;;16.00;99.90;;;;;;5017931;28;20463;-61
2023/05/20 10:31:57;;;;;;;10.03;8.60;;;15.90;99.90;;;;;;5018060;28;20486;-62
2023/05/20 10:34:24;;;;;;;9.03;7.97;;;16.20;99.90;;;;;;5037293;28;20451;-61
2023/05/20 10:36:58;;;;;;;9.13;8.30;;;16.20;99.90;;;;;;5036717;28;20778;-62
2023/05/20 10:39:28;;;;;;;10.47;9.47;;;16.40;99.90;;;;;;5038574;28;20463;-61
2023/05/20 10:42:07;;;;;;;9.33;8.47;;;16.40;99.90;;;;;;5038821;28;20448;-61
2023/05/20 10:44:43;;;;;;;9.60;8.70;;;16.60;99.90;;;;;;5038000;28;20497;-62
2023/05/20 10:47:12;;;;;;;9.43;8.53;;;16.40;99.90;;;;;;5037379;28;20769;-61
2023/05/20 10:49:41;;;;;;;9.00;8.30;;;16.50;99.90;;;;;;5037168;28;20459;-61
2023/05/20 10:52:10;;;;;;;9.23;8.43;;;16.70;99.90;;;;;;5037141;28;20455;-62
2023/05/20 10:54:43;;;;;;;10.40;8.90;;;16.90;99.90;;;;;;5035374;28;20459;-61
2023/05/20 10:57:11;;;;;;;9.43;8.50;;;17.10;99.90;;;;;;5035629;28;20463;-62
2023/05/20 10:59:38;;;;;;;9.83;8.77;;;17.00;99.90;;;;;;5035511;28;20470;-62
2023/05/20 11:02:05;;;;;;;9.40;8.50;;;17.10;99.90;;;;;;5036101;28;20469;-62
2023/05/20 11:04:34;;;;;;;9.30;8.40;;;17.10;99.90;;;;;;5035327;28;20501;-61
2023/05/20 11:07:01;;;;;;;9.73;8.73;;;17.40;99.90;;;;;;5037588;28;20514;-61
2023/05/20 11:09:30;;;;;;;8.60;7.83;;;17.70;99.90;;;;;;5035332;28;20471;-61
2023/05/20 11:11:59;;;;;;;8.60;7.80;;;17.90;99.90;;;;;;5037789;28;20521;-60
2023/05/20 11:14:28;;;;;;;11.53;8.60;;;18.00;99.90;;;;;;5029322;28;20517;-61
2023/05/20 11:16:57;;;;;;;9.83;8.80;;;18.10;99.90;;;;;;5036740;28;20485;-61
2023/05/20 11:19:25;;;;;;;8.83;8.03;;;18.00;99.90;;;;;;5035766;28;20464;-61
2023/05/20 11:21:54;;;;;;;9.13;8.30;;;18.30;99.90;;;;;;5035369;28;20493;-61
2023/05/20 11:24:26;;;;;;;10.47;7.60;;;18.20;99.90;;;;;;5034260;28;20502;-62
2023/05/20 11:26:54;;;;;;;9.87;9.03;;;18.50;99.90;;;;;;5004582;28;20496;-61
2023/05/20 11:29:22;;;;;;;9.73;8.20;;;18.60;99.90;;;;;;5015359;28;20475;-61
2023/05/20 11:31:50;;;;;;;7.73;7.00;;;19.30;99.90;;;;;;5015962;28;20506;-61
2023/05/20 11:34:21;;;;;;;8.57;7.77;;;19.90;99.90;;;;;;5011119;28;20464;-61
2023/05/20 11:36:49;;;;;;;9.73;8.70;;;20.40;99.90;;;;;;5007761;28;20481;-61
2023/05/20 11:39:18;;;;;;;8.90;7.67;;;20.20;99.90;;;;;;5006876;28;20778;-61
2023/05/20 11:41:45;;;;;;;8.70;7.90;;;20.10;99.90;;;;;;4994529;28;20988;-61
2023/05/20 11:44:13;;;;;;;8.07;7.37;;;19.90;99.90;;;;;;4993984;28;20595;-61
2023/05/20 11:46:44;;;;;;;8.70;7.60;;;19.60;99.90;;;;;;4994702;28;20465;-62
2023/05/20 11:49:12;;;;;;;8.60;7.80;;;19.70;99.90;;;;;;4994526;28;20804;-62
2023/05/20 11:51:40;;;;;;;9.03;6.90;;;19.80;99.90;;;;;;4994639;28;20471;-61
2023/05/20 11:54:08;;;;;;;8.33;7.73;;;20.10;99.90;;;;;;4995509;28;20806;-60
2023/05/20 11:56:40;;;;;;;12.30;7.87;;;19.80;99.90;;;;;;4995326;28;20460;-61
2023/05/20 11:59:09;;;;;;;8.90;8.07;;;20.00;99.90;;;;;;4994923;28;20528;-61
2023/05/20 12:01:39;;;;;;;8.90;8.00;;;19.70;99.90;;;;;;4996343;28;20908;-61
2023/05/20 12:04:07;;;;;;;8.40;7.47;;;19.90;99.90;;;;;;4998708;28;20501;-61
2023/05/20 12:06:35;;;;;;;6.93;6.33;;;20.20;99.90;;;;;;5020434;28;20463;-61
2023/05/20 12:09:05;;;;;;;8.23;6.90;;;20.20;99.90;;;;;;5033814;28;20567;-62
2023/05/20 12:11:34;;;;;;;7.77;7.07;;;20.50;99.90;;;;;;5034336;28;20892;-61
2023/05/20 12:14:02;;;;;;;9.63;7.20;;;20.60;99.90;;;;;;5035356;28;20782;-61
2023/05/20 12:16:31;;;;;;;8.00;7.37;;;20.40;99.90;;;;;;5017175;28;20904;-61
2023/05/20 12:18:58;;;;;;;8.23;7.53;;;20.40;99.90;;;;;;5015412;28;20471;-61
2023/05/20 12:21:25;;;;;;;7.97;7.20;;;20.30;99.90;;;;;;5015118;28;20849;-61
2023/05/20 12:23:56;;;;;;;8.37;7.67;;;20.10;99.90;;;;;;5015900;28;20562;-61
2023/05/20 12:26:23;;;;;;;7.97;7.20;;;19.70;99.90;;;;;;5016107;28;20491;-61
2023/05/20 12:28:51;;;;;;;7.07;6.47;;;19.60;99.90;;;;;;5017348;28;20480;-61
2023/05/20 12:31:19;;;;;;;7.90;7.20;;;19.70;99.90;;;;;;5019523;28;20767;-61
2023/05/20 12:33:47;;;;;;;7.93;7.33;;;19.40;99.90;;;;;;5019467;28;20546;-60
2023/05/20 12:36:15;;;;;;;8.40;7.70;;;19.30;99.90;;;;;;5018773;28;20464;-61
2023/05/20 12:38:42;;;;;;;7.40;6.80;;;19.10;99.90;;;;;;5019056;28;20464;-61
2023/05/20 12:41:09;;;;;;;7.30;6.70;;;18.80;99.90;;;;;;5019495;28;20464;-61
2023/05/20 12:43:36;;;;;;;7.13;6.50;;;18.80;99.90;;;;;;5019492;28;20468;-61
2023/05/20 12:46:04;;;;;;;8.90;7.50;;;18.60;99.90;;;;;;5019462;28;20583;-61
2023/05/20 12:48:33;;;;;;;7.07;6.47;;;18.40;99.90;;;;;;5019540;28;20558;-61
2023/05/20 12:51:00;;;;;;;7.77;7.07;;;18.20;99.90;;;;;;5020660;28;20844;-61
2023/05/20 12:53:27;;;;;;;7.27;6.63;;;18.10;99.90;;;;;;5021029;28;20554;-60